Huntingtown, Maryland
Current Conditions -  °F | °C
As of 2:58 PM on Wednesday 17 Dec 2014 (Local Time) from KADW Reporting Station
Clear Clear  
Wind Chill: 52°   Ceiling: Unl
Heat Index: 52°   Visibility: 10mi
Dew Point: 31°   Wind: 16mph
Humidity: 45%   Direction: 320°NW
Pressure: 29.96"   Gusts: 21mph
Location:  38.62°N, 76.61°W
Report Text: KADW 171958Z AUTO 32014G18KT 10SM CLR 11/M01 A2996 RMK AO2 SLPNO T01091006
Loading
Personal Weather Stations






























Interactive Weather Map New forecast layout! Learn more

10-Day Weather Forecast

Advertisements
Track Severe Weather on mobile